sensor_id;sensor_type;location;lat;lon;timestamp;P1;durP1;ratioP1;P2;durP2;ratioP2
14704;SDS011;7442;50.840;3.396;2023-06-26T00:02:44;4.65;;;3.47;;
14704;SDS011;7442;50.840;3.396;2023-06-26T00:05:30;4.37;;;3.37;;
14704;SDS011;7442;50.840;3.396;2023-06-26T00:08:17;4.35;;;3.67;;
14704;SDS011;7442;50.840;3.396;2023-06-26T00:11:03;4.10;;;3.58;;
14704;SDS011;7442;50.840;3.396;2023-06-26T00:13:50;5.62;;;3.80;;
14704;SDS011;7442;50.840;3.396;2023-06-26T00:16:36;4.55;;;3.30;;
14704;SDS011;7442;50.840;3.396;2023-06-26T00:19:22;4.65;;;3.20;;
14704;SDS011;7442;50.840;3.396;2023-06-26T00:22:08;4.28;;;3.30;;
14704;SDS011;7442;50.840;3.396;2023-06-26T00:24:55;5.15;;;3.00;;
14704;SDS011;7442;50.840;3.396;2023-06-26T00:27:41;3.95;;;3.10;;
14704;SDS011;7442;50.840;3.396;2023-06-26T00:30:28;4.25;;;3.20;;
14704;SDS011;7442;50.840;3.396;2023-06-26T00:33:14;4.05;;;3.20;;
14704;SDS011;7442;50.840;3.396;2023-06-26T00:36:00;4.85;;;3.35;;
14704;SDS011;7442;50.840;3.396;2023-06-26T00:38:47;4.97;;;3.27;;
14704;SDS011;7442;50.840;3.396;2023-06-26T00:41:40;5.17;;;3.35;;
14704;SDS011;7442;50.840;3.396;2023-06-26T00:44:23;3.95;;;2.92;;
14704;SDS011;7442;50.840;3.396;2023-06-26T00:47:12;4.72;;;3.55;;
14704;SDS011;7442;50.840;3.396;2023-06-26T00:50:02;5.75;;;3.22;;
14704;SDS011;7442;50.840;3.396;2023-06-26T00:52:49;5.55;;;3.20;;
14704;SDS011;7442;50.840;3.396;2023-06-26T00:55:35;4.00;;;3.22;;
14704;SDS011;7442;50.840;3.396;2023-06-26T00:58:24;7.35;;;3.50;;
14704;SDS011;7442;50.840;3.396;2023-06-26T01:01:11;4.25;;;3.30;;
14704;SDS011;7442;50.840;3.396;2023-06-26T01:04:04;5.22;;;3.10;;
14704;SDS011;7442;50.840;3.396;2023-06-26T01:06:51;5.67;;;3.33;;
14704;SDS011;7442;50.840;3.396;2023-06-26T01:09:37;4.72;;;3.17;;
14704;SDS011;7442;50.840;3.396;2023-06-26T01:12:23;5.92;;;3.37;;
14704;SDS011;7442;50.840;3.396;2023-06-26T01:15:09;8.08;;;3.50;;
14704;SDS011;7442;50.840;3.396;2023-06-26T01:17:57;6.87;;;3.33;;
14704;SDS011;7442;50.840;3.396;2023-06-26T01:20:44;5.85;;;2.95;;
14704;SDS011;7442;50.840;3.396;2023-06-26T01:24:17;5.22;;;3.20;;
14704;SDS011;7442;50.840;3.396;2023-06-26T01:26:32;4.65;;;3.10;;
14704;SDS011;7442;50.840;3.396;2023-06-26T01:29:21;5.50;;;3.30;;
14704;SDS011;7442;50.840;3.396;2023-06-26T01:32:08;6.47;;;3.37;;
14704;SDS011;7442;50.840;3.396;2023-06-26T01:34:55;5.35;;;3.42;;
14704;SDS011;7442;50.840;3.396;2023-06-26T01:37:42;4.22;;;2.90;;
14704;SDS011;7442;50.840;3.396;2023-06-26T01:40:29;6.28;;;3.55;;
14704;SDS011;7442;50.840;3.396;2023-06-26T01:43:18;6.35;;;3.00;;
14704;SDS011;7442;50.840;3.396;2023-06-26T01:46:22;5.90;;;3.42;;
14704;SDS011;7442;50.840;3.396;2023-06-26T01:49:09;7.05;;;3.40;;
14704;SDS011;7442;50.840;3.396;2023-06-26T01:52:09;5.42;;;3.05;;
14704;SDS011;7442;50.840;3.396;2023-06-26T01:55:17;4.97;;;3.12;;
14704;SDS011;7442;50.840;3.396;2023-06-26T01:58:20;5.92;;;3.02;;
14704;SDS011;7442;50.840;3.396;2023-06-26T02:01:09;6.85;;;3.45;;
14704;SDS011;7442;50.840;3.396;2023-06-26T02:03:55;4.45;;;3.10;;
14704;SDS011;7442;50.840;3.396;2023-06-26T02:06:41;6.17;;;3.40;;
14704;SDS011;7442;50.840;3.396;2023-06-26T02:09:27;4.95;;;3.33;;
14704;SDS011;7442;50.840;3.396;2023-06-26T02:12:14;7.10;;;3.30;;
14704;SDS011;7442;50.840;3.396;2023-06-26T02:15:00;7.08;;;3.30;;
14704;SDS011;7442;50.840;3.396;2023-06-26T02:17:46;5.65;;;3.37;;
14704;SDS011;7442;50.840;3.396;2023-06-26T02:20:32;5.08;;;3.17;;
14704;SDS011;7442;50.840;3.396;2023-06-26T02:23:19;7.42;;;3.52;;
14704;SDS011;7442;50.840;3.396;2023-06-26T02:26:05;6.42;;;3.00;;
14704;SDS011;7442;50.840;3.396;2023-06-26T02:28:52;5.60;;;3.02;;
14704;SDS011;7442;50.840;3.396;2023-06-26T02:31:38;8.40;;;3.15;;
14704;SDS011;7442;50.840;3.396;2023-06-26T02:34:24;6.22;;;3.37;;
14704;SDS011;7442;50.840;3.396;2023-06-26T02:37:10;5.30;;;2.80;;
14704;SDS011;7442;50.840;3.396;2023-06-26T02:39:57;5.50;;;3.22;;
14704;SDS011;7442;50.840;3.396;2023-06-26T02:42:43;5.83;;;3.00;;
14704;SDS011;7442;50.840;3.396;2023-06-26T02:45:29;7.22;;;3.05;;
14704;SDS011;7442;50.840;3.396;2023-06-26T02:48:15;6.90;;;3.33;;
14704;SDS011;7442;50.840;3.396;2023-06-26T02:51:01;6.65;;;3.05;;
14704;SDS011;7442;50.840;3.396;2023-06-26T02:53:47;8.65;;;3.33;;
14704;SDS011;7442;50.840;3.396;2023-06-26T02:56:33;8.13;;;3.77;;
14704;SDS011;7442;50.840;3.396;2023-06-26T02:59:20;6.67;;;3.77;;
14704;SDS011;7442;50.840;3.396;2023-06-26T03:02:06;5.58;;;3.00;;
14704;SDS011;7442;50.840;3.396;2023-06-26T03:04:52;7.35;;;3.35;;
14704;SDS011;7442;50.840;3.396;2023-06-26T03:07:38;6.47;;;3.02;;
14704;SDS011;7442;50.840;3.396;2023-06-26T03:10:24;6.47;;;3.35;;
14704;SDS011;7442;50.840;3.396;2023-06-26T03:13:10;6.17;;;3.58;;
14704;SDS011;7442;50.840;3.396;2023-06-26T03:15:56;7.62;;;3.47;;
14704;SDS011;7442;50.840;3.396;2023-06-26T03:18:43;7.80;;;3.20;;
14704;SDS011;7442;50.840;3.396;2023-06-26T03:21:29;5.20;;;3.47;;
14704;SDS011;7442;50.840;3.396;2023-06-26T03:24:15;6.60;;;3.20;;
14704;SDS011;7442;50.840;3.396;2023-06-26T03:27:01;7.47;;;3.35;;
14704;SDS011;7442;50.840;3.396;2023-06-26T03:29:48;7.95;;;2.98;;
14704;SDS011;7442;50.840;3.396;2023-06-26T03:32:34;8.45;;;3.37;;
14704;SDS011;7442;50.840;3.396;2023-06-26T03:35:20;9.50;;;3.15;;
14704;SDS011;7442;50.840;3.396;2023-06-26T03:38:07;5.62;;;3.27;;
14704;SDS011;7442;50.840;3.396;2023-06-26T03:40:53;6.25;;;3.20;;
14704;SDS011;7442;50.840;3.396;2023-06-26T03:43:39;7.17;;;3.58;;
14704;SDS011;7442;50.840;3.396;2023-06-26T03:46:25;6.33;;;3.08;;
14704;SDS011;7442;50.840;3.396;2023-06-26T03:49:11;6.03;;;2.62;;
14704;SDS011;7442;50.840;3.396;2023-06-26T03:51:58;7.20;;;3.00;;
14704;SDS011;7442;50.840;3.396;2023-06-26T03:54:44;6.03;;;3.08;;
14704;SDS011;7442;50.840;3.396;2023-06-26T03:57:31;6.28;;;2.80;;
14704;SDS011;7442;50.840;3.396;2023-06-26T04:00:17;6.78;;;3.05;;
14704;SDS011;7442;50.840;3.396;2023-06-26T04:03:03;6.12;;;3.12;;
14704;SDS011;7442;50.840;3.396;2023-06-26T04:05:50;7.47;;;3.20;;
14704;SDS011;7442;50.840;3.396;2023-06-26T04:08:35;6.22;;;3.00;;
14704;SDS011;7442;50.840;3.396;2023-06-26T04:11:22;6.60;;;3.45;;
14704;SDS011;7442;50.840;3.396;2023-06-26T04:14:08;6.08;;;3.15;;
14704;SDS011;7442;50.840;3.396;2023-06-26T04:16:54;4.65;;;2.95;;
14704;SDS011;7442;50.840;3.396;2023-06-26T04:19:42;6.75;;;2.72;;
14704;SDS011;7442;50.840;3.396;2023-06-26T04:22:28;7.30;;;3.17;;
14704;SDS011;7442;50.840;3.396;2023-06-26T04:25:14;4.17;;;2.75;;
14704;SDS011;7442;50.840;3.396;2023-06-26T04:28:01;3.52;;;2.52;;
14704;SDS011;7442;50.840;3.396;2023-06-26T04:30:47;6.08;;;3.10;;
14704;SDS011;7442;50.840;3.396;2023-06-26T04:33:34;5.60;;;2.98;;
14704;SDS011;7442;50.840;3.396;2023-06-26T04:36:22;5.35;;;2.50;;
14704;SDS011;7442;50.840;3.396;2023-06-26T04:39:10;6.22;;;2.92;;
14704;SDS011;7442;50.840;3.396;2023-06-26T04:41:56;4.08;;;2.42;;
14704;SDS011;7442;50.840;3.396;2023-06-26T04:44:43;5.17;;;2.58;;
14704;SDS011;7442;50.840;3.396;2023-06-26T04:47:29;8.43;;;3.20;;
14704;SDS011;7442;50.840;3.396;2023-06-26T04:50:15;5.20;;;2.52;;
14704;SDS011;7442;50.840;3.396;2023-06-26T04:53:03;6.75;;;2.83;;
14704;SDS011;7442;50.840;3.396;2023-06-26T04:55:50;4.90;;;2.65;;
14704;SDS011;7442;50.840;3.396;2023-06-26T04:58:37;4.75;;;2.58;;
14704;SDS011;7442;50.840;3.396;2023-06-26T05:01:24;5.53;;;2.60;;
14704;SDS011;7442;50.840;3.396;2023-06-26T05:04:12;4.03;;;2.50;;
14704;SDS011;7442;50.840;3.396;2023-06-26T05:06:59;4.62;;;2.37;;
14704;SDS011;7442;50.840;3.396;2023-06-26T05:09:46;5.58;;;2.35;;
14704;SDS011;7442;50.840;3.396;2023-06-26T05:12:33;6.22;;;2.85;;
14704;SDS011;7442;50.840;3.396;2023-06-26T05:15:19;7.53;;;2.85;;
14704;SDS011;7442;50.840;3.396;2023-06-26T05:18:06;6.70;;;2.52;;
14704;SDS011;7442;50.840;3.396;2023-06-26T05:20:52;5.35;;;2.42;;
14704;SDS011;7442;50.840;3.396;2023-06-26T05:23:40;3.92;;;1.85;;
14704;SDS011;7442;50.840;3.396;2023-06-26T05:26:29;5.47;;;2.65;;
14704;SDS011;7442;50.840;3.396;2023-06-26T05:29:15;5.12;;;2.37;;
14704;SDS011;7442;50.840;3.396;2023-06-26T05:32:02;3.30;;;1.90;;
14704;SDS011;7442;50.840;3.396;2023-06-26T05:34:49;5.17;;;2.35;;
14704;SDS011;7442;50.840;3.396;2023-06-26T05:37:40;3.85;;;2.00;;
14704;SDS011;7442;50.840;3.396;2023-06-26T05:40:27;5.78;;;2.30;;
14704;SDS011;7442;50.840;3.396;2023-06-26T05:43:14;5.80;;;2.22;;
14704;SDS011;7442;50.840;3.396;2023-06-26T05:46:01;7.42;;;2.17;;
14704;SDS011;7442;50.840;3.396;2023-06-26T05:48:47;18.27;;;2.92;;
14704;SDS011;7442;50.840;3.396;2023-06-26T05:51:34;7.85;;;2.10;;
14704;SDS011;7442;50.840;3.396;2023-06-26T05:54:20;6.10;;;2.10;;
14704;SDS011;7442;50.840;3.396;2023-06-26T05:57:09;6.20;;;2.25;;
14704;SDS011;7442;50.840;3.396;2023-06-26T05:59:55;7.03;;;2.22;;
14704;SDS011;7442;50.840;3.396;2023-06-26T06:02:42;7.97;;;2.27;;
14704;SDS011;7442;50.840;3.396;2023-06-26T06:05:29;10.38;;;2.52;;
14704;SDS011;7442;50.840;3.396;2023-06-26T06:08:15;9.18;;;1.85;;
14704;SDS011;7442;50.840;3.396;2023-06-26T06:11:02;6.17;;;2.15;;
14704;SDS011;7442;50.840;3.396;2023-06-26T06:13:48;9.98;;;2.05;;
14704;SDS011;7442;50.840;3.396;2023-06-26T06:16:34;5.17;;;2.10;;
14704;SDS011;7442;50.840;3.396;2023-06-26T06:19:21;6.25;;;2.17;;
14704;SDS011;7442;50.840;3.396;2023-06-26T06:22:08;5.40;;;1.95;;
14704;SDS011;7442;50.840;3.396;2023-06-26T06:24:54;6.28;;;2.47;;
14704;SDS011;7442;50.840;3.396;2023-06-26T06:27:41;8.13;;;1.95;;
14704;SDS011;7442;50.840;3.396;2023-06-26T06:30:29;10.38;;;2.40;;
14704;SDS011;7442;50.840;3.396;2023-06-26T06:33:15;5.95;;;2.50;;
14704;SDS011;7442;50.840;3.396;2023-06-26T06:36:01;7.97;;;2.12;;
14704;SDS011;7442;50.840;3.396;2023-06-26T06:38:48;9.20;;;2.02;;
14704;SDS011;7442;50.840;3.396;2023-06-26T06:41:34;7.20;;;2.40;;
14704;SDS011;7442;50.840;3.396;2023-06-26T06:44:21;7.67;;;1.95;;
14704;SDS011;7442;50.840;3.396;2023-06-26T06:47:14;6.40;;;2.27;;
14704;SDS011;7442;50.840;3.396;2023-06-26T06:50:00;5.53;;;2.08;;
14704;SDS011;7442;50.840;3.396;2023-06-26T06:52:49;7.25;;;2.58;;
14704;SDS011;7442;50.840;3.396;2023-06-26T06:55:35;7.17;;;2.27;;
14704;SDS011;7442;50.840;3.396;2023-06-26T06:58:21;7.80;;;2.00;;
14704;SDS011;7442;50.840;3.396;2023-06-26T07:01:15;9.38;;;1.92;;
14704;SDS011;7442;50.840;3.396;2023-06-26T07:04:01;9.60;;;2.30;;
14704;SDS011;7442;50.840;3.396;2023-06-26T07:06:48;6.83;;;1.80;;
14704;SDS011;7442;50.840;3.396;2023-06-26T07:09:34;6.05;;;1.87;;
14704;SDS011;7442;50.840;3.396;2023-06-26T07:12:21;4.05;;;1.75;;
14704;SDS011;7442;50.840;3.396;2023-06-26T07:15:08;6.72;;;2.12;;
14704;SDS011;7442;50.840;3.396;2023-06-26T07:17:54;6.45;;;2.40;;
14704;SDS011;7442;50.840;3.396;2023-06-26T07:20:41;7.67;;;2.25;;
14704;SDS011;7442;50.840;3.396;2023-06-26T07:23:27;5.42;;;2.35;;
14704;SDS011;7442;50.840;3.396;2023-06-26T07:26:14;5.25;;;1.85;;
14704;SDS011;7442;50.840;3.396;2023-06-26T07:29:05;6.25;;;2.05;;
14704;SDS011;7442;50.840;3.396;2023-06-26T07:31:51;9.80;;;2.62;;
14704;SDS011;7442;50.840;3.396;2023-06-26T07:34:37;3.35;;;1.70;;
14704;SDS011;7442;50.840;3.396;2023-06-26T07:37:25;7.53;;;2.00;;
14704;SDS011;7442;50.840;3.396;2023-06-26T07:40:12;10.18;;;2.37;;
14704;SDS011;7442;50.840;3.396;2023-06-26T07:42:58;7.12;;;2.35;;
14704;SDS011;7442;50.840;3.396;2023-06-26T07:45:45;11.08;;;2.55;;
14704;SDS011;7442;50.840;3.396;2023-06-26T07:48:31;5.45;;;1.95;;
14704;SDS011;7442;50.840;3.396;2023-06-26T07:51:17;7.60;;;2.00;;
14704;SDS011;7442;50.840;3.396;2023-06-26T07:54:04;3.72;;;2.00;;
14704;SDS011;7442;50.840;3.396;2023-06-26T07:59:51;7.60;;;2.15;;
14704;SDS011;7442;50.840;3.396;2023-06-26T08:02:38;11.03;;;2.22;;
14704;SDS011;7442;50.840;3.396;2023-06-26T08:05:24;7.10;;;1.90;;
14704;SDS011;7442;50.840;3.396;2023-06-26T08:08:10;9.30;;;2.08;;
14704;SDS011;7442;50.840;3.396;2023-06-26T08:10:56;5.58;;;1.85;;
14704;SDS011;7442;50.840;3.396;2023-06-26T08:13:42;8.68;;;2.00;;
14704;SDS011;7442;50.840;3.396;2023-06-26T08:16:28;7.22;;;2.00;;
14704;SDS011;7442;50.840;3.396;2023-06-26T08:19:16;6.00;;;2.15;;
14704;SDS011;7442;50.840;3.396;2023-06-26T08:22:02;4.95;;;1.90;;
14704;SDS011;7442;50.840;3.396;2023-06-26T08:24:49;8.30;;;2.10;;
14704;SDS011;7442;50.840;3.396;2023-06-26T08:27:35;6.17;;;1.80;;
14704;SDS011;7442;50.840;3.396;2023-06-26T08:30:21;7.70;;;1.77;;
14704;SDS011;7442;50.840;3.396;2023-06-26T08:33:09;7.05;;;2.12;;
14704;SDS011;7442;50.840;3.396;2023-06-26T08:35:57;8.73;;;2.00;;
14704;SDS011;7442;50.840;3.396;2023-06-26T08:38:43;3.47;;;1.60;;
14704;SDS011;7442;50.840;3.396;2023-06-26T08:41:30;5.62;;;1.72;;
14704;SDS011;7442;50.840;3.396;2023-06-26T08:44:17;5.65;;;2.00;;
14704;SDS011;7442;50.840;3.396;2023-06-26T08:47:13;5.05;;;1.90;;
14704;SDS011;7442;50.840;3.396;2023-06-26T08:50:13;4.67;;;1.80;;
14704;SDS011;7442;50.840;3.396;2023-06-26T08:53:05;7.17;;;2.00;;
14704;SDS011;7442;50.840;3.396;2023-06-26T08:56:08;6.35;;;1.80;;
14704;SDS011;7442;50.840;3.396;2023-06-26T08:58:56;2.90;;;1.80;;
14704;SDS011;7442;50.840;3.396;2023-06-26T09:01:43;5.83;;;2.00;;
14704;SDS011;7442;50.840;3.396;2023-06-26T09:04:30;5.75;;;1.90;;
14704;SDS011;7442;50.840;3.396;2023-06-26T09:07:16;3.92;;;1.80;;
14704;SDS011;7442;50.840;3.396;2023-06-26T09:10:02;9.18;;;2.40;;
14704;SDS011;7442;50.840;3.396;2023-06-26T09:12:49;6.42;;;1.87;;
14704;SDS011;7442;50.840;3.396;2023-06-26T09:15:41;6.25;;;1.80;;
14704;SDS011;7442;50.840;3.396;2023-06-26T09:18:29;6.25;;;1.95;;
14704;SDS011;7442;50.840;3.396;2023-06-26T09:21:17;7.45;;;1.80;;
14704;SDS011;7442;50.840;3.396;2023-06-26T09:24:03;8.55;;;1.82;;
14704;SDS011;7442;50.840;3.396;2023-06-26T09:26:51;4.40;;;1.77;;
14704;SDS011;7442;50.840;3.396;2023-06-26T09:29:38;6.90;;;1.75;;
14704;SDS011;7442;50.840;3.396;2023-06-26T09:32:24;4.25;;;1.80;;
14704;SDS011;7442;50.840;3.396;2023-06-26T09:35:12;6.05;;;1.70;;
14704;SDS011;7442;50.840;3.396;2023-06-26T09:37:58;10.53;;;2.60;;
14704;SDS011;7442;50.840;3.396;2023-06-26T09:40:45;7.90;;;3.40;;
14704;SDS011;7442;50.840;3.396;2023-06-26T09:43:31;8.00;;;2.72;;
14704;SDS011;7442;50.840;3.396;2023-06-26T09:46:17;7.37;;;2.98;;
14704;SDS011;7442;50.840;3.396;2023-06-26T09:49:11;5.78;;;2.25;;
14704;SDS011;7442;50.840;3.396;2023-06-26T09:51:59;14.90;;;3.80;;
14704;SDS011;7442;50.840;3.396;2023-06-26T09:54:47;8.80;;;2.98;;
14704;SDS011;7442;50.840;3.396;2023-06-26T09:57:34;7.12;;;2.08;;
14704;SDS011;7442;50.840;3.396;2023-06-26T10:00:20;4.80;;;2.12;;
14704;SDS011;7442;50.840;3.396;2023-06-26T10:03:07;11.38;;;2.45;;
14704;SDS011;7442;50.840;3.396;2023-06-26T10:05:53;10.13;;;2.30;;
14704;SDS011;7442;50.840;3.396;2023-06-26T10:08:39;5.78;;;1.98;;
14704;SDS011;7442;50.840;3.396;2023-06-26T10:11:29;7.35;;;2.17;;
14704;SDS011;7442;50.840;3.396;2023-06-26T10:14:19;4.67;;;2.00;;
14704;SDS011;7442;50.840;3.396;2023-06-26T10:17:10;3.52;;;1.80;;
14704;SDS011;7442;50.840;3.396;2023-06-26T10:19:59;7.97;;;2.20;;
14704;SDS011;7442;50.840;3.396;2023-06-26T10:22:48;11.48;;;2.30;;
14704;SDS011;7442;50.840;3.396;2023-06-26T10:25:42;8.15;;;1.90;;
14704;SDS011;7442;50.840;3.396;2023-06-26T10:28:30;6.22;;;1.98;;
14704;SDS011;7442;50.840;3.396;2023-06-26T10:31:21;4.37;;;1.92;;
14704;SDS011;7442;50.840;3.396;2023-06-26T10:34:11;3.10;;;1.60;;
14704;SDS011;7442;50.840;3.396;2023-06-26T10:37:00;6.10;;;2.15;;
14704;SDS011;7442;50.840;3.396;2023-06-26T10:39:49;8.45;;;2.00;;
14704;SDS011;7442;50.840;3.396;2023-06-26T10:42:39;6.87;;;1.80;;
14704;SDS011;7442;50.840;3.396;2023-06-26T10:45:28;3.67;;;1.55;;
14704;SDS011;7442;50.840;3.396;2023-06-26T10:48:14;7.67;;;1.87;;
14704;SDS011;7442;50.840;3.396;2023-06-26T10:51:13;5.22;;;1.87;;
14704;SDS011;7442;50.840;3.396;2023-06-26T10:53:56;5.03;;;2.00;;
14704;SDS011;7442;50.840;3.396;2023-06-26T10:56:44;7.75;;;2.05;;
14704;SDS011;7442;50.840;3.396;2023-06-26T10:59:32;7.25;;;1.70;;
14704;SDS011;7442;50.840;3.396;2023-06-26T11:02:19;7.35;;;1.82;;
14704;SDS011;7442;50.840;3.396;2023-06-26T11:05:05;3.98;;;1.35;;
14704;SDS011;7442;50.840;3.396;2023-06-26T11:08:06;4.35;;;1.70;;
14704;SDS011;7442;50.840;3.396;2023-06-26T11:10:59;5.00;;;1.82;;
14704;SDS011;7442;50.840;3.396;2023-06-26T11:13:46;6.22;;;1.80;;
14704;SDS011;7442;50.840;3.396;2023-06-26T11:16:32;3.27;;;1.75;;
14704;SDS011;7442;50.840;3.396;2023-06-26T11:19:19;3.80;;;1.70;;
14704;SDS011;7442;50.840;3.396;2023-06-26T11:22:06;4.60;;;1.87;;
14704;SDS011;7442;50.840;3.396;2023-06-26T11:24:53;5.75;;;1.87;;
14704;SDS011;7442;50.840;3.396;2023-06-26T11:27:41;4.30;;;1.80;;
14704;SDS011;7442;50.840;3.396;2023-06-26T11:30:28;3.83;;;1.70;;
14704;SDS011;7442;50.840;3.396;2023-06-26T11:33:15;6.20;;;1.70;;
14704;SDS011;7442;50.840;3.396;2023-06-26T11:36:10;4.67;;;1.62;;
14704;SDS011;7442;50.840;3.396;2023-06-26T11:39:00;8.88;;;2.30;;
14704;SDS011;7442;50.840;3.396;2023-06-26T11:41:49;4.30;;;1.80;;
14704;SDS011;7442;50.840;3.396;2023-06-26T11:44:40;8.23;;;1.80;;
14704;SDS011;7442;50.840;3.396;2023-06-26T11:47:25;6.80;;;1.82;;
14704;SDS011;7442;50.840;3.396;2023-06-26T11:50:15;3.30;;;1.62;;
14704;SDS011;7442;50.840;3.396;2023-06-26T11:53:02;4.78;;;1.60;;
14704;SDS011;7442;50.840;3.396;2023-06-26T11:55:49;4.80;;;1.90;;
14704;SDS011;7442;50.840;3.396;2023-06-26T11:58:36;2.95;;;1.60;;
14704;SDS011;7442;50.840;3.396;2023-06-26T12:01:24;6.37;;;2.12;;
14704;SDS011;7442;50.840;3.396;2023-06-26T12:04:11;3.27;;;1.45;;
14704;SDS011;7442;50.840;3.396;2023-06-26T12:06:59;6.42;;;1.60;;
14704;SDS011;7442;50.840;3.396;2023-06-26T12:09:48;3.92;;;1.72;;
14704;SDS011;7442;50.840;3.396;2023-06-26T12:12:35;4.83;;;1.65;;
14704;SDS011;7442;50.840;3.396;2023-06-26T12:15:22;2.80;;;1.42;;
14704;SDS011;7442;50.840;3.396;2023-06-26T12:18:14;4.90;;;1.92;;
14704;SDS011;7442;50.840;3.396;2023-06-26T12:24:26;3.58;;;1.55;;
14704;SDS011;7442;50.840;3.396;2023-06-26T12:27:13;5.60;;;1.52;;
14704;SDS011;7442;50.840;3.396;2023-06-26T12:30:02;3.08;;;1.40;;
14704;SDS011;7442;50.840;3.396;2023-06-26T12:32:49;3.62;;;1.62;;
14704;SDS011;7442;50.840;3.396;2023-06-26T12:35:36;2.75;;;1.40;;
14704;SDS011;7442;50.840;3.396;2023-06-26T12:38:23;3.50;;;1.80;;
14704;SDS011;7442;50.840;3.396;2023-06-26T12:41:14;3.92;;;1.75;;
14704;SDS011;7442;50.840;3.396;2023-06-26T12:44:01;4.20;;;1.72;;
14704;SDS011;7442;50.840;3.396;2023-06-26T12:46:47;4.15;;;2.00;;
14704;SDS011;7442;50.840;3.396;2023-06-26T12:49:41;5.90;;;1.67;;
14704;SDS011;7442;50.840;3.396;2023-06-26T12:52:23;6.92;;;1.70;;
14704;SDS011;7442;50.840;3.396;2023-06-26T12:55:15;4.00;;;1.50;;
14704;SDS011;7442;50.840;3.396;2023-06-26T12:58:02;7.05;;;1.90;;
14704;SDS011;7442;50.840;3.396;2023-06-26T13:00:50;4.25;;;1.67;;
14704;SDS011;7442;50.840;3.396;2023-06-26T13:03:38;7.25;;;2.25;;
14704;SDS011;7442;50.840;3.396;2023-06-26T13:06:25;6.15;;;1.70;;
14704;SDS011;7442;50.840;3.396;2023-06-26T13:09:12;4.62;;;1.82;;
14704;SDS011;7442;50.840;3.396;2023-06-26T13:11:58;3.87;;;1.47;;
14704;SDS011;7442;50.840;3.396;2023-06-26T13:14:44;6.97;;;2.30;;
14704;SDS011;7442;50.840;3.396;2023-06-26T13:17:31;8.43;;;2.25;;
14704;SDS011;7442;50.840;3.396;2023-06-26T13:20:17;2.30;;;1.30;;
14704;SDS011;7442;50.840;3.396;2023-06-26T13:23:03;6.83;;;1.80;;
14704;SDS011;7442;50.840;3.396;2023-06-26T13:25:49;10.20;;;2.47;;
14704;SDS011;7442;50.840;3.396;2023-06-26T13:28:36;6.67;;;2.25;;
14704;SDS011;7442;50.840;3.396;2023-06-26T13:31:23;7.60;;;1.80;;
14704;SDS011;7442;50.840;3.396;2023-06-26T13:34:09;7.55;;;1.90;;
14704;SDS011;7442;50.840;3.396;2023-06-26T13:36:59;5.50;;;1.65;;
14704;SDS011;7442;50.840;3.396;2023-06-26T13:39:45;6.05;;;1.82;;
14704;SDS011;7442;50.840;3.396;2023-06-26T13:42:33;4.08;;;1.80;;
14704;SDS011;7442;50.840;3.396;2023-06-26T13:45:20;9.75;;;2.30;;
14704;SDS011;7442;50.840;3.396;2023-06-26T13:48:06;4.58;;;2.05;;
14704;SDS011;7442;50.840;3.396;2023-06-26T13:50:52;4.08;;;1.90;;
14704;SDS011;7442;50.840;3.396;2023-06-26T13:53:39;6.70;;;2.20;;
14704;SDS011;7442;50.840;3.396;2023-06-26T13:56:25;7.25;;;1.72;;
14704;SDS011;7442;50.840;3.396;2023-06-26T13:59:11;6.95;;;2.17;;
14704;SDS011;7442;50.840;3.396;2023-06-26T14:01:58;4.67;;;1.70;;
14704;SDS011;7442;50.840;3.396;2023-06-26T14:04:44;3.65;;;1.50;;
14704;SDS011;7442;50.840;3.396;2023-06-26T14:07:30;5.40;;;1.42;;
14704;SDS011;7442;50.840;3.396;2023-06-26T14:10:17;4.17;;;1.80;;
14704;SDS011;7442;50.840;3.396;2023-06-26T14:13:03;3.70;;;1.67;;
14704;SDS011;7442;50.840;3.396;2023-06-26T14:15:49;5.15;;;1.80;;
14704;SDS011;7442;50.840;3.396;2023-06-26T14:18:41;4.45;;;1.70;;
14704;SDS011;7442;50.840;3.396;2023-06-26T14:21:27;3.70;;;1.50;;
14704;SDS011;7442;50.840;3.396;2023-06-26T14:24:13;5.15;;;1.77;;
14704;SDS011;7442;50.840;3.396;2023-06-26T14:26:59;5.17;;;1.70;;
14704;SDS011;7442;50.840;3.396;2023-06-26T14:29:45;5.75;;;1.80;;
14704;SDS011;7442;50.840;3.396;2023-06-26T14:32:32;4.75;;;1.60;;
14704;SDS011;7442;50.840;3.396;2023-06-26T14:35:18;3.72;;;1.60;;
14704;SDS011;7442;50.840;3.396;2023-06-26T14:38:05;4.85;;;1.72;;
14704;SDS011;7442;50.840;3.396;2023-06-26T14:40:51;6.90;;;1.80;;
14704;SDS011;7442;50.840;3.396;2023-06-26T14:43:40;5.25;;;1.55;;
14704;SDS011;7442;50.840;3.396;2023-06-26T14:46:26;3.98;;;1.40;;
14704;SDS011;7442;50.840;3.396;2023-06-26T14:49:12;3.33;;;1.40;;
14704;SDS011;7442;50.840;3.396;2023-06-26T14:51:58;4.87;;;1.52;;
14704;SDS011;7442;50.840;3.396;2023-06-26T14:54:45;5.00;;;2.20;;
14704;SDS011;7442;50.840;3.396;2023-06-26T14:57:31;5.03;;;1.75;;
14704;SDS011;7442;50.840;3.396;2023-06-26T15:00:18;6.87;;;1.70;;
14704;SDS011;7442;50.840;3.396;2023-06-26T15:03:05;4.10;;;1.77;;
14704;SDS011;7442;50.840;3.396;2023-06-26T15:05:50;3.65;;;1.52;;
14704;SDS011;7442;50.840;3.396;2023-06-26T15:08:37;3.37;;;1.60;;
14704;SDS011;7442;50.840;3.396;2023-06-26T15:11:23;3.40;;;1.72;;
14704;SDS011;7442;50.840;3.396;2023-06-26T15:14:09;6.22;;;2.05;;
14704;SDS011;7442;50.840;3.396;2023-06-26T15:16:55;5.67;;;1.85;;
14704;SDS011;7442;50.840;3.396;2023-06-26T15:19:42;3.50;;;1.50;;
14704;SDS011;7442;50.840;3.396;2023-06-26T15:22:28;3.25;;;1.55;;
14704;SDS011;7442;50.840;3.396;2023-06-26T15:25:14;4.97;;;1.87;;
14704;SDS011;7442;50.840;3.396;2023-06-26T15:28:01;7.05;;;1.95;;
14704;SDS011;7442;50.840;3.396;2023-06-26T15:30:48;5.42;;;2.15;;
14704;SDS011;7442;50.840;3.396;2023-06-26T15:33:35;5.17;;;1.90;;
14704;SDS011;7442;50.840;3.396;2023-06-26T15:36:22;5.83;;;1.85;;
14704;SDS011;7442;50.840;3.396;2023-06-26T15:39:09;4.80;;;1.90;;
14704;SDS011;7442;50.840;3.396;2023-06-26T15:41:56;9.45;;;2.50;;
14704;SDS011;7442;50.840;3.396;2023-06-26T15:44:42;6.42;;;2.20;;
14704;SDS011;7442;50.840;3.396;2023-06-26T15:47:29;6.53;;;2.02;;
14704;SDS011;7442;50.840;3.396;2023-06-26T15:50:15;7.83;;;1.82;;
14704;SDS011;7442;50.840;3.396;2023-06-26T15:53:02;7.67;;;1.90;;
14704;SDS011;7442;50.840;3.396;2023-06-26T15:55:49;9.53;;;2.35;;
14704;SDS011;7442;50.840;3.396;2023-06-26T15:58:36;5.55;;;1.85;;
14704;SDS011;7442;50.840;3.396;2023-06-26T16:01:30;4.72;;;1.70;;
14704;SDS011;7442;50.840;3.396;2023-06-26T16:04:17;6.37;;;2.17;;
14704;SDS011;7442;50.840;3.396;2023-06-26T16:07:06;3.47;;;1.60;;
14704;SDS011;7442;50.840;3.396;2023-06-26T16:09:52;6.78;;;1.50;;
14704;SDS011;7442;50.840;3.396;2023-06-26T16:12:39;5.50;;;1.80;;
14704;SDS011;7442;50.840;3.396;2023-06-26T16:15:25;5.55;;;1.50;;
14704;SDS011;7442;50.840;3.396;2023-06-26T16:18:12;4.42;;;1.57;;
14704;SDS011;7442;50.840;3.396;2023-06-26T16:20:58;5.87;;;2.02;;
14704;SDS011;7442;50.840;3.396;2023-06-26T16:23:45;3.27;;;1.52;;
14704;SDS011;7442;50.840;3.396;2023-06-26T16:26:33;5.05;;;1.80;;
14704;SDS011;7442;50.840;3.396;2023-06-26T16:29:19;3.22;;;1.62;;
14704;SDS011;7442;50.840;3.396;2023-06-26T16:32:11;4.55;;;1.70;;
14704;SDS011;7442;50.840;3.396;2023-06-26T16:34:53;3.62;;;1.30;;
14704;SDS011;7442;50.840;3.396;2023-06-26T16:37:40;7.42;;;2.05;;
14704;SDS011;7442;50.840;3.396;2023-06-26T16:40:27;6.83;;;2.10;;
14704;SDS011;7442;50.840;3.396;2023-06-26T16:43:14;8.85;;;2.47;;
14704;SDS011;7442;50.840;3.396;2023-06-26T16:46:01;7.65;;;2.08;;
14704;SDS011;7442;50.840;3.396;2023-06-26T16:48:47;7.87;;;2.10;;
14704;SDS011;7442;50.840;3.396;2023-06-26T16:51:34;9.00;;;2.60;;
14704;SDS011;7442;50.840;3.396;2023-06-26T16:54:22;7.87;;;2.45;;
14704;SDS011;7442;50.840;3.396;2023-06-26T16:57:09;7.12;;;2.20;;
14704;SDS011;7442;50.840;3.396;2023-06-26T16:59:55;5.37;;;2.35;;
14704;SDS011;7442;50.840;3.396;2023-06-26T17:02:43;9.68;;;2.37;;
14704;SDS011;7442;50.840;3.396;2023-06-26T17:05:30;8.93;;;2.27;;
14704;SDS011;7442;50.840;3.396;2023-06-26T17:08:16;6.75;;;2.45;;
14704;SDS011;7442;50.840;3.396;2023-06-26T17:11:02;10.80;;;2.40;;